Historyczne dane pomiarowe

Dodano dane terminowe – wersja testowa.

Dane z okresu 1951-2019

Wersja bazy: 1.34 [2019-03-16, lista zmian], aktualizacja planowana na 2019-04-15

Dane meteo z obszaru Polski uzyskane na podstawie danych udostępnionych przez Instytut Meteorologii i Gospodarki Wodnej – Państwowy Instytut Badawczy.

 

Wybierz Datę:    

       

TemperaturaWilgotnośćWiatrCiśnienieOpadyŚniegCzas trwania zjawisk
 Stacja t tx tn tng RH VA  wxwx mslp ppp RRR   cm mm wxwxwxwxwxwxwx
1990-12-13 0.2 2.6 -1.8 -4.3 84.3- 4.0 2.0---- 0.2------------
1990-12-14 -1.0 0.0 -1.5 -1.8 94.5- 8.0 2.0---- 1.1------------
1990-12-15 -1.0 -0.3 -1.6 -1.9 94.3- 8.0 1.3---- 12.2------------
1990-12-16 -1.6 -0.4 -2.4 -2.4 92.5- 8.0 1.0---- 3.7-- 9---------
1990-12-17 -2.4 -1.6 -3.0 -3.6 93.0- 8.0 1.0---- 0.0-- 11---------
1990-12-18 -4.0 -2.6 -5.3-12.8 91.5- 5.0 1.3---- 0.0-- 10---------
1990-12-19 -2.3 1.9 -5.2 -7.0 87.5- 3.3 0.7---- 0.0-- 9---------
1990-12-20 -4.4 0.2 -8.7-13.1 82.3- 6.0 1.7---- 0.0-- 8---------
1990-12-21 -3.1 0.4 -7.6-10.8 79.5- 7.3 3.7---- 1.1-- 7---------
1990-12-22 -1.9 0.6 -5.7 -5.7 84.8- 4.3 3.3---- 0.0-- 7---------
1990-12-23 -7.9 -4.7 -9.8-15.2 92.3- 1.3 1.3---- 0.0-- 7---------
1990-12-24 -7.1 -3.4-10.1-15.3 72.5- 0.0 3.0---- 0.0-- 7---------
1990-12-25 -4.1 -0.3 -8.4-12.3 55.3- 0.0 3.0---- 0.0-- 7---------
1990-12-26 1.1 2.3 -2.2 -7.2 53.3- 1.3 5.3---- 0.0-- 7---------
1990-12-27 1.3 3.3 -0.6 -6.3 77.8- 7.0 4.0---- 0.0-- 5---------
1990-12-28 0.4 2.9 -2.3 -7.0 77.3- 3.3 2.3---- 0.5-- 4---------
1990-12-29 -2.2 2.1 -6.8-11.8 73.8- 5.3 3.0---- 0.9-- 4---------
1990-12-30 4.5 9.6 0.7 -0.1 85.3- 7.7 1.7---- 0.5-- 3---------
1990-12-31 2.8 6.2 1.2 -0.1 85.0- 5.0 0.7---- 0.1-- 2---------
1991-01-01 2.1 4.3 0.0 -0.9 90.5- 8.0 3.3---- 0.0------------
1991-01-02 2.1 4.1 0.4 -2.1 62.8- 5.0 2.3---- 0.0------------
1991-01-03 6.9 9.9 3.5 0.8 75.8- 4.7 4.3---- 0.0------------
1991-01-04 4.7 8.1 1.7 -0.2 89.5- 3.0 3.0---- 1.1------------
1991-01-05 3.3 6.4 -0.2 -1.1 81.3- 5.3 2.7---- 1.0------------
1991-01-06 1.8 7.0 -2.3 -5.1 69.0- 7.0 2.3---- 0.0------------
1991-01-07 2.4 4.2 0.1 -3.0 71.8- 5.7 1.7---- 0.2------------
1991-01-08 5.7 8.7 2.9 -0.3 73.0- 4.3 1.7---- 0.0------------
1991-01-09 4.3 8.3 0.2 -1.7 73.5- 2.0 2.3---- 0.0------------
1991-01-10 8.5 14.9 2.7 -1.1 63.0- 5.3 3.3---- 0.0------------
1991-01-11 8.3 15.1 6.0 3.6 76.0- 7.7 1.3---- 0.0------------
210.0 ms

 

Źródłem pochodzenia danych jest Instytut Meteorologii i Gospodarki Wodnej – Państwowy Instytut Badawczy. Dane Instytutu Meteorologii i Gospodarki Wodnej – Państwowego Instytutu Badawczego zostały przetworzone.

Dane źródłowe można odnaleźć na stronie https://dane.imgw.pl